Date,TemperatureHighF,TemperatureAvgF,TemperatureLowF,DewpointHighF,DewpointAvgF,DewpointLowF,HumidityHigh,HumidityAvg,HumidityLow,PressureMaxIn,PressureMinIn,WindSpeedMaxMPH,WindSpeedAvgMPH,GustSpeedMaxMPH,PrecipitationSumIn
2011-8-1,90.8,77.7,66.3,70.0,67.2,64.0,92,72,45,29.94,29.66,3,0,7,0.00
2011-8-2,88.4,73.7,64.0,68.0,63.4,56.0,98,74,34,29.72,29.59,5,1,9,0.36
2011-8-3,80.1,68.7,58.6,65.0,61.4,58.0,99,79,53,29.80,29.68,4,0,6,0.00
2011-8-4,81.3,70.2,61.7,66.0,62.4,60.0,96,78,56,30.02,29.80,3,0,8,0.00
2011-8-5,81.2,71.3,62.1,68.0,64.2,61.0,98,80,60,30.09,30.03,4,0,7,0.01
2011-8-6,84.4,75.3,66.6,72.0,68.4,64.0,94,80,63,30.05,29.88,4,1,7,0.00
2011-8-7,80.3,72.9,67.9,76.0,71.6,67.0,98,95,86,29.88,29.50,4,1,8,1.82
2011-8-8,83.9,75.9,69.6,76.0,72.4,69.0,99,89,72,29.61,29.44,3,0,6,0.22
2011-8-9,80.6,71.4,65.8,70.0,67.6,65.0,99,89,68,29.68,29.53,4,1,7,1.04
2011-8-10,83.3,69.8,63.4,71.0,66.2,62.0,99,89,65,29.67,29.47,2,1,8,0.23
2011-8-11,80.9,70.6,62.5,65.0,58.1,52.0,98,69,37,29.86,29.67,4,1,10,0.00
2011-8-12,82.2,69.5,55.7,62.0,58.2,54.0,96,70,44,30.00,29.87,2,0,6,0.00
2011-8-13,83.5,71.3,58.6,66.0,62.0,57.0,98,75,43,30.06,29.97,3,0,4,0.00
2011-8-14,73.6,69.3,66.2,70.0,66.7,63.0,97,91,81,29.99,29.86,2,0,6,0.05
2011-8-15,68.9,65.1,59.6,68.0,64.4,59.0,99,97,92,29.87,29.64,4,1,13,1.38
2011-8-16,72.0,64.0,58.7,64.0,61.6,59.0,99,92,75,29.96,29.65,3,0,6,0.04
2011-8-17,86.8,71.5,57.0,67.0,61.6,57.0,100,75,40,30.10,29.96,2,0,8,0.01
2011-8-18,86.2,73.9,62.7,70.0,66.2,62.0,98,79,52,30.05,29.88,4,1,7,0.00
2011-8-19,87.0,72.8,66.9,73.0,69.0,65.0,98,89,55,29.92,29.86,6,0,17,0.94
2011-8-20,86.8,74.9,67.3,74.0,69.2,66.0,99,84,53,29.96,29.89,2,0,5,0.10
2011-8-21,86.1,73.7,63.8,75.0,68.4,63.0,99,84,58,29.96,29.74,6,1,8,0.00
2011-8-22,78.3,70.0,61.1,71.0,60.4,52.0,98,75,42,29.87,29.64,3,1,12,0.37
2011-8-23,78.2,65.9,53.8,58.0,54.8,51.0,96,71,39,30.05,29.87,3,0,8,0.00
2011-8-24,79.9,68.1,56.9,64.0,59.8,56.0,98,77,50,30.09,29.97,5,1,11,0.00
2011-8-25,83.4,73.4,62.2,75.0,69.1,60.0,98,86,71,29.97,29.81,6,1,12,0.10
2011-8-26,88.8,74.8,65.4,71.0,67.6,65.0,99,81,49,29.98,29.87,3,0,6,0.03
2011-8-27,80.8,70.6,64.7,73.0,68.9,64.0,99,94,75,29.94,29.77,2,0,4,2.18
2011-8-28,73.1,68.9,65.0,73.0,66.6,-99.9,99,94,76,29.76,29.00,12,-8,19,0.07
2011-8-29,80.7,67.5,57.0,60.0,55.9,51.0,90,69,37,30.00,29.46,5,1,13,0.00
2011-8-30,84.1,67.2,53.4,61.0,55.9,53.0,98,72,35,30.12,30.00,3,0,5,0.00
2011-8-31,86.8,69.2,55.9,64.0,60.2,55.0,98,76,44,30.19,30.12,3,0,4,0.00